sensor_id;sensor_type;location;lat;lon;timestamp;temperature;humidity
78696;SHT31;68030;51.980;5.646;2023-04-24T00:00:30;13.1;68.7
78696;SHT31;68030;51.980;5.646;2023-04-24T00:03:00;13.1;68.6
78696;SHT31;68030;51.980;5.646;2023-04-24T00:05:32;13.1;68.9
78696;SHT31;68030;51.980;5.646;2023-04-24T00:08:02;13.1;68.4
78696;SHT31;68030;51.980;5.646;2023-04-24T00:10:32;13.1;68.1
78696;SHT31;68030;51.980;5.646;2023-04-24T00:13:02;13.1;68.5
78696;SHT31;68030;51.980;5.646;2023-04-24T00:15:31;13.1;68.8
78696;SHT31;68030;51.980;5.646;2023-04-24T00:18:01;13.1;68.6
78696;SHT31;68030;51.980;5.646;2023-04-24T00:20:31;13.2;67.7
78696;SHT31;68030;51.980;5.646;2023-04-24T00:23:02;13.2;67.9
78696;SHT31;68030;51.980;5.646;2023-04-24T00:25:32;13.2;67.8
78696;SHT31;68030;51.980;5.646;2023-04-24T00:28:02;13.2;68.0
78696;SHT31;68030;51.980;5.646;2023-04-24T00:30:31;13.2;67.9
78696;SHT31;68030;51.980;5.646;2023-04-24T00:33:01;13.2;68.0
78696;SHT31;68030;51.980;5.646;2023-04-24T00:35:31;13.2;67.7
78696;SHT31;68030;51.980;5.646;2023-04-24T00:38:00;13.2;67.8
78696;SHT31;68030;51.980;5.646;2023-04-24T00:40:30;13.2;67.8
78696;SHT31;68030;51.980;5.646;2023-04-24T00:43:00;13.2;68.0
78696;SHT31;68030;51.980;5.646;2023-04-24T00:45:29;13.2;68.7
78696;SHT31;68030;51.980;5.646;2023-04-24T00:48:00;13.2;68.8
78696;SHT31;68030;51.980;5.646;2023-04-24T00:50:31;13.2;68.6
78696;SHT31;68030;51.980;5.646;2023-04-24T00:53:02;13.2;68.9
78696;SHT31;68030;51.980;5.646;2023-04-24T00:55:33;13.2;68.9
78696;SHT31;68030;51.980;5.646;2023-04-24T00:58:04;13.1;68.9
78696;SHT31;68030;51.980;5.646;2023-04-24T01:00:35;13.1;69.2
78696;SHT31;68030;51.980;5.646;2023-04-24T01:03:08;13.1;68.0
78696;SHT31;68030;51.980;5.646;2023-04-24T01:05:38;13.1;67.6
78696;SHT31;68030;51.980;5.646;2023-04-24T01:08:08;13.1;67.5
78696;SHT31;68030;51.980;5.646;2023-04-24T01:10:41;13.0;67.4
78696;SHT31;68030;51.980;5.646;2023-04-24T01:13:13;13.0;67.5
78696;SHT31;68030;51.980;5.646;2023-04-24T01:15:43;13.0;67.7
78696;SHT31;68030;51.980;5.646;2023-04-24T01:18:12;12.9;67.7
78696;SHT31;68030;51.980;5.646;2023-04-24T01:20:44;12.9;68.2
78696;SHT31;68030;51.980;5.646;2023-04-24T01:23:15;12.9;68.3
78696;SHT31;68030;51.980;5.646;2023-04-24T01:25:48;12.8;68.6
78696;SHT31;68030;51.980;5.646;2023-04-24T01:28:18;12.8;68.9
78696;SHT31;68030;51.980;5.646;2023-04-24T01:30:48;12.8;69.0
78696;SHT31;68030;51.980;5.646;2023-04-24T01:33:18;12.8;69.1
78696;SHT31;68030;51.980;5.646;2023-04-24T01:35:50;12.8;69.2
78696;SHT31;68030;51.980;5.646;2023-04-24T01:38:20;12.8;69.5
78696;SHT31;68030;51.980;5.646;2023-04-24T01:40:51;12.8;69.5
78696;SHT31;68030;51.980;5.646;2023-04-24T01:43:21;12.7;69.6
78696;SHT31;68030;51.980;5.646;2023-04-24T01:45:52;12.8;69.8
78696;SHT31;68030;51.980;5.646;2023-04-24T01:48:22;12.8;70.3
78696;SHT31;68030;51.980;5.646;2023-04-24T01:50:51;12.8;70.4
78696;SHT31;68030;51.980;5.646;2023-04-24T01:53:21;12.8;70.6
78696;SHT31;68030;51.980;5.646;2023-04-24T01:55:50;12.8;70.5
78696;SHT31;68030;51.980;5.646;2023-04-24T01:58:21;12.8;70.7
78696;SHT31;68030;51.980;5.646;2023-04-24T02:00:52;12.8;71.0
78696;SHT31;68030;51.980;5.646;2023-04-24T02:03:21;12.8;71.2
78696;SHT31;68030;51.980;5.646;2023-04-24T02:05:52;12.8;71.3
78696;SHT31;68030;51.980;5.646;2023-04-24T02:08:21;12.8;71.3
78696;SHT31;68030;51.980;5.646;2023-04-24T02:10:51;12.8;71.4
78696;SHT31;68030;51.980;5.646;2023-04-24T02:13:21;12.8;71.2
78696;SHT31;68030;51.980;5.646;2023-04-24T02:15:51;12.8;71.1
78696;SHT31;68030;51.980;5.646;2023-04-24T02:18:20;12.8;71.1
78696;SHT31;68030;51.980;5.646;2023-04-24T03:46:20;14.9;61.5
78696;SHT31;68030;51.980;5.646;2023-04-24T03:48:50;14.7;62.6
78696;SHT31;68030;51.980;5.646;2023-04-24T03:51:19;14.6;63.0
78696;SHT31;68030;51.980;5.646;2023-04-24T03:53:50;14.5;62.7
78696;SHT31;68030;51.980;5.646;2023-04-24T03:56:19;14.4;63.4
78696;SHT31;68030;51.980;5.646;2023-04-24T03:58:49;14.4;64.0
78696;SHT31;68030;51.980;5.646;2023-04-24T04:01:18;14.3;63.6
78696;SHT31;68030;51.980;5.646;2023-04-24T04:03:48;14.2;63.5
78696;SHT31;68030;51.980;5.646;2023-04-24T04:06:17;14.1;63.8
78696;SHT31;68030;51.980;5.646;2023-04-24T04:08:48;14.0;64.4
78696;SHT31;68030;51.980;5.646;2023-04-24T04:11:20;13.9;64.4
78696;SHT31;68030;51.980;5.646;2023-04-24T04:13:50;13.8;64.3
78696;SHT31;68030;51.980;5.646;2023-04-24T04:16:20;13.7;64.7
78696;SHT31;68030;51.980;5.646;2023-04-24T04:18:50;13.6;65.1
78696;SHT31;68030;51.980;5.646;2023-04-24T04:21:21;13.6;65.0
78696;SHT31;68030;51.980;5.646;2023-04-24T04:23:51;13.5;65.4
78696;SHT31;68030;51.980;5.646;2023-04-24T04:26:20;13.4;65.8
78696;SHT31;68030;51.980;5.646;2023-04-24T04:28:53;13.3;66.2
78696;SHT31;68030;51.980;5.646;2023-04-24T04:31:23;13.3;66.3
78696;SHT31;68030;51.980;5.646;2023-04-24T04:33:52;13.2;67.1
78696;SHT31;68030;51.980;5.646;2023-04-24T04:36:22;13.1;67.6
78696;SHT31;68030;51.980;5.646;2023-04-24T04:38:53;13.1;67.9
78696;SHT31;68030;51.980;5.646;2023-04-24T04:41:24;13.0;68.2
78696;SHT31;68030;51.980;5.646;2023-04-24T04:43:53;13.0;68.6
78696;SHT31;68030;51.980;5.646;2023-04-24T04:46:26;13.0;68.4
78696;SHT31;68030;51.980;5.646;2023-04-24T04:49:00;12.9;68.4
78696;SHT31;68030;51.980;5.646;2023-04-24T04:51:30;12.9;68.5
78696;SHT31;68030;51.980;5.646;2023-04-24T04:54:00;12.9;68.3
78696;SHT31;68030;51.980;5.646;2023-04-24T04:56:31;12.8;67.6
78696;SHT31;68030;51.980;5.646;2023-04-24T04:59:01;12.8;67.9
78696;SHT31;68030;51.980;5.646;2023-04-24T05:01:30;12.8;68.0
78696;SHT31;68030;51.980;5.646;2023-04-24T05:04:00;12.8;68.0
78696;SHT31;68030;51.980;5.646;2023-04-24T05:06:29;12.8;68.0
78696;SHT31;68030;51.980;5.646;2023-04-24T05:08:59;12.8;67.9
78696;SHT31;68030;51.980;5.646;2023-04-24T05:11:31;12.7;68.2
78696;SHT31;68030;51.980;5.646;2023-04-24T05:14:00;12.7;68.3
78696;SHT31;68030;51.980;5.646;2023-04-24T05:16:30;12.7;68.2
78696;SHT31;68030;51.980;5.646;2023-04-24T05:19:00;12.8;68.6
78696;SHT31;68030;51.980;5.646;2023-04-24T05:21:29;12.8;68.2
78696;SHT31;68030;51.980;5.646;2023-04-24T05:23:59;12.8;68.3
78696;SHT31;68030;51.980;5.646;2023-04-24T05:26:29;12.8;68.2
78696;SHT31;68030;51.980;5.646;2023-04-24T05:28:58;12.8;67.7
78696;SHT31;68030;51.980;5.646;2023-04-24T05:31:28;12.8;68.2
78696;SHT31;68030;51.980;5.646;2023-04-24T05:33:58;12.9;68.4
78696;SHT31;68030;51.980;5.646;2023-04-24T05:36:28;12.9;68.5
78696;SHT31;68030;51.980;5.646;2023-04-24T05:38:58;12.9;68.4
78696;SHT31;68030;51.980;5.646;2023-04-24T05:41:27;13.0;68.7
78696;SHT31;68030;51.980;5.646;2023-04-24T05:43:57;13.0;68.3
78696;SHT31;68030;51.980;5.646;2023-04-24T05:46:27;13.0;68.9
78696;SHT31;68030;51.980;5.646;2023-04-24T05:48:56;13.1;69.2
78696;SHT31;68030;51.980;5.646;2023-04-24T05:51:28;13.1;69.1
78696;SHT31;68030;51.980;5.646;2023-04-24T05:53:57;13.1;69.4
78696;SHT31;68030;51.980;5.646;2023-04-24T05:56:27;13.2;68.8
78696;SHT31;68030;51.980;5.646;2023-04-24T05:58:57;13.2;69.0
78696;SHT31;68030;51.980;5.646;2023-04-24T06:01:26;13.3;69.3
78696;SHT31;68030;51.980;5.646;2023-04-24T06:03:59;13.3;68.5
78696;SHT31;68030;51.980;5.646;2023-04-24T06:06:29;13.3;68.0
78696;SHT31;68030;51.980;5.646;2023-04-24T06:09:00;13.4;68.1
78696;SHT31;68030;51.980;5.646;2023-04-24T06:11:30;13.4;68.1
78696;SHT31;68030;51.980;5.646;2023-04-24T06:13:59;13.4;67.8
78696;SHT31;68030;51.980;5.646;2023-04-24T06:16:29;13.4;67.7
78696;SHT31;68030;51.980;5.646;2023-04-24T06:18:59;13.5;67.9
78696;SHT31;68030;51.980;5.646;2023-04-24T06:21:29;13.5;67.7
78696;SHT31;68030;51.980;5.646;2023-04-24T06:23:59;13.5;67.9
78696;SHT31;68030;51.980;5.646;2023-04-24T06:26:29;13.6;67.6
78696;SHT31;68030;51.980;5.646;2023-04-24T06:28:58;13.6;66.9
78696;SHT31;68030;51.980;5.646;2023-04-24T06:31:28;13.6;67.4
78696;SHT31;68030;51.980;5.646;2023-04-24T06:33:57;13.6;67.2
78696;SHT31;68030;51.980;5.646;2023-04-24T06:36:28;13.6;66.7
78696;SHT31;68030;51.980;5.646;2023-04-24T06:38:58;13.6;66.8
78696;SHT31;68030;51.980;5.646;2023-04-24T06:41:29;13.5;67.1
78696;SHT31;68030;51.980;5.646;2023-04-24T06:43:58;13.5;67.4
78696;SHT31;68030;51.980;5.646;2023-04-24T06:46:28;13.4;67.5
78696;SHT31;68030;51.980;5.646;2023-04-24T06:48:59;13.4;67.9
78696;SHT31;68030;51.980;5.646;2023-04-24T06:51:29;13.4;67.4
78696;SHT31;68030;51.980;5.646;2023-04-24T06:54:00;13.3;67.1
78696;SHT31;68030;51.980;5.646;2023-04-24T06:56:33;13.2;67.4
78696;SHT31;68030;51.980;5.646;2023-04-24T06:59:02;13.2;67.5
78696;SHT31;68030;51.980;5.646;2023-04-24T07:01:32;13.1;68.4
78696;SHT31;68030;51.980;5.646;2023-04-24T07:04:01;13.0;68.6
78696;SHT31;68030;51.980;5.646;2023-04-24T07:06:31;13.0;69.2
78696;SHT31;68030;51.980;5.646;2023-04-24T07:09:03;12.9;69.2
78696;SHT31;68030;51.980;5.646;2023-04-24T07:11:32;12.9;69.0
78696;SHT31;68030;51.980;5.646;2023-04-24T07:14:04;12.8;69.1
78696;SHT31;68030;51.980;5.646;2023-04-24T07:16:33;12.7;69.0
78696;SHT31;68030;51.980;5.646;2023-04-24T07:19:03;12.7;68.9
78696;SHT31;68030;51.980;5.646;2023-04-24T07:21:34;12.6;69.3
78696;SHT31;68030;51.980;5.646;2023-04-24T07:24:04;12.5;70.5
78696;SHT31;68030;51.980;5.646;2023-04-24T07:26:37;12.4;70.4
78696;SHT31;68030;51.980;5.646;2023-04-24T07:29:08;12.3;70.2
78696;SHT31;68030;51.980;5.646;2023-04-24T07:31:38;12.3;70.5
78696;SHT31;68030;51.980;5.646;2023-04-24T07:34:08;12.2;71.1
78696;SHT31;68030;51.980;5.646;2023-04-24T07:36:38;12.1;71.5
78696;SHT31;68030;51.980;5.646;2023-04-24T07:39:08;12.0;71.4
78696;SHT31;68030;51.980;5.646;2023-04-24T07:41:37;12.0;71.6
78696;SHT31;68030;51.980;5.646;2023-04-24T07:44:08;11.9;70.9
78696;SHT31;68030;51.980;5.646;2023-04-24T07:46:38;11.8;71.4
78696;SHT31;68030;51.980;5.646;2023-04-24T07:49:07;11.8;72.0
78696;SHT31;68030;51.980;5.646;2023-04-24T07:51:37;11.7;72.4
78696;SHT31;68030;51.980;5.646;2023-04-24T07:54:07;11.7;72.5
78696;SHT31;68030;51.980;5.646;2023-04-24T07:56:39;11.6;71.9
78696;SHT31;68030;51.980;5.646;2023-04-24T07:59:10;11.6;72.7
78696;SHT31;68030;51.980;5.646;2023-04-24T08:01:40;11.6;73.3
78696;SHT31;68030;51.980;5.646;2023-04-24T08:04:12;11.5;72.7
78696;SHT31;68030;51.980;5.646;2023-04-24T08:06:41;11.5;73.2
78696;SHT31;68030;51.980;5.646;2023-04-24T08:09:11;11.5;73.2
78696;SHT31;68030;51.980;5.646;2023-04-24T08:11:41;11.5;73.4
78696;SHT31;68030;51.980;5.646;2023-04-24T08:14:10;11.5;73.0
78696;SHT31;68030;51.980;5.646;2023-04-24T08:16:41;11.5;73.0
78696;SHT31;68030;51.980;5.646;2023-04-24T08:19:13;11.5;72.4
78696;SHT31;68030;51.980;5.646;2023-04-24T08:21:42;11.5;72.5
78696;SHT31;68030;51.980;5.646;2023-04-24T08:24:12;11.5;73.0
78696;SHT31;68030;51.980;5.646;2023-04-24T08:26:41;11.5;73.3
78696;SHT31;68030;51.980;5.646;2023-04-24T08:29:13;11.4;73.1
78696;SHT31;68030;51.980;5.646;2023-04-24T08:31:43;11.4;73.6
78696;SHT31;68030;51.980;5.646;2023-04-24T08:34:12;11.4;73.6
78696;SHT31;68030;51.980;5.646;2023-04-24T08:36:44;11.4;73.7
78696;SHT31;68030;51.980;5.646;2023-04-24T08:39:14;11.4;73.2
78696;SHT31;68030;51.980;5.646;2023-04-24T08:41:45;11.4;73.1
78696;SHT31;68030;51.980;5.646;2023-04-24T08:44:15;11.4;73.3
78696;SHT31;68030;51.980;5.646;2023-04-24T08:46:48;11.4;73.4
78696;SHT31;68030;51.980;5.646;2023-04-24T08:49:19;11.4;74.2
78696;SHT31;68030;51.980;5.646;2023-04-24T08:51:50;11.4;73.7
78696;SHT31;68030;51.980;5.646;2023-04-24T08:54:21;11.4;73.7
78696;SHT31;68030;51.980;5.646;2023-04-24T08:56:53;11.4;73.7
78696;SHT31;68030;51.980;5.646;2023-04-24T08:59:30;11.4;72.1
78696;SHT31;68030;51.980;5.646;2023-04-24T09:02:03;11.5;72.7
78696;SHT31;68030;51.980;5.646;2023-04-24T09:04:33;11.5;71.9
78696;SHT31;68030;51.980;5.646;2023-04-24T09:07:06;11.5;71.6
78696;SHT31;68030;51.980;5.646;2023-04-24T09:09:38;11.5;71.6
78696;SHT31;68030;51.980;5.646;2023-04-24T09:12:08;11.5;71.3
78696;SHT31;68030;51.980;5.646;2023-04-24T09:14:38;11.5;69.4
78696;SHT31;68030;51.980;5.646;2023-04-24T09:17:12;11.5;70.3
78696;SHT31;68030;51.980;5.646;2023-04-24T09:19:44;11.5;70.1
78696;SHT31;68030;51.980;5.646;2023-04-24T09:22:15;11.5;69.3
78696;SHT31;68030;51.980;5.646;2023-04-24T09:24:45;11.6;68.0
78696;SHT31;68030;51.980;5.646;2023-04-24T09:27:15;11.6;67.9
78696;SHT31;68030;51.980;5.646;2023-04-24T09:29:55;11.6;67.2
78696;SHT31;68030;51.980;5.646;2023-04-24T09:32:25;11.6;66.1
78696;SHT31;68030;51.980;5.646;2023-04-24T09:35:08;11.7;67.4
78696;SHT31;68030;51.980;5.646;2023-04-24T09:37:42;11.7;66.7
78696;SHT31;68030;51.980;5.646;2023-04-24T09:40:14;11.7;66.4
78696;SHT31;68030;51.980;5.646;2023-04-24T09:42:46;11.7;68.0
78696;SHT31;68030;51.980;5.646;2023-04-24T09:45:16;11.7;68.3
78696;SHT31;68030;51.980;5.646;2023-04-24T09:47:46;11.8;63.7
78696;SHT31;68030;51.980;5.646;2023-04-24T09:50:21;11.8;64.5
78696;SHT31;68030;51.980;5.646;2023-04-24T09:52:59;11.8;64.7
78696;SHT31;68030;51.980;5.646;2023-04-24T09:55:31;11.9;65.5
78696;SHT31;68030;51.980;5.646;2023-04-24T09:58:02;11.9;66.0
78696;SHT31;68030;51.980;5.646;2023-04-24T10:00:33;12.0;64.2
78696;SHT31;68030;51.980;5.646;2023-04-24T10:03:05;12.2;63.7
78696;SHT31;68030;51.980;5.646;2023-04-24T10:05:38;12.3;63.4
78696;SHT31;68030;51.980;5.646;2023-04-24T10:08:09;12.5;62.2
78696;SHT31;68030;51.980;5.646;2023-04-24T10:10:43;12.6;62.4
78696;SHT31;68030;51.980;5.646;2023-04-24T10:13:15;12.8;61.9
78696;SHT31;68030;51.980;5.646;2023-04-24T10:15:47;13.0;61.0
78696;SHT31;68030;51.980;5.646;2023-04-24T10:18:17;13.1;60.2
78696;SHT31;68030;51.980;5.646;2023-04-24T10:20:51;13.3;60.4
78696;SHT31;68030;51.980;5.646;2023-04-24T10:23:22;13.4;56.8
78696;SHT31;68030;51.980;5.646;2023-04-24T10:25:56;13.4;56.2
78696;SHT31;68030;51.980;5.646;2023-04-24T10:28:28;13.5;56.1
78696;SHT31;68030;51.980;5.646;2023-04-24T10:31:01;13.5;56.1
78696;SHT31;68030;51.980;5.646;2023-04-24T10:33:31;13.5;56.6
78696;SHT31;68030;51.980;5.646;2023-04-24T10:36:02;13.5;54.8
78696;SHT31;68030;51.980;5.646;2023-04-24T10:38:34;13.6;55.2
78696;SHT31;68030;51.980;5.646;2023-04-24T10:41:12;13.6;55.1
78696;SHT31;68030;51.980;5.646;2023-04-24T10:43:47;13.6;55.1
78696;SHT31;68030;51.980;5.646;2023-04-24T10:46:20;13.7;54.3
78696;SHT31;68030;51.980;5.646;2023-04-24T10:48:54;13.7;54.4
78696;SHT31;68030;51.980;5.646;2023-04-24T10:51:45;13.7;53.9
78696;SHT31;68030;51.980;5.646;2023-04-24T10:54:33;13.6;54.6
78696;SHT31;68030;51.980;5.646;2023-04-24T10:57:28;13.5;55.4
78696;SHT31;68030;51.980;5.646;2023-04-24T11:00:14;13.5;55.0
78696;SHT31;68030;51.980;5.646;2023-04-24T11:02:47;13.4;55.3
78696;SHT31;68030;51.980;5.646;2023-04-24T11:05:21;13.5;55.3
78696;SHT31;68030;51.980;5.646;2023-04-24T11:08:12;13.5;53.7
78696;SHT31;68030;51.980;5.646;2023-04-24T11:10:47;13.5;55.5
78696;SHT31;68030;51.980;5.646;2023-04-24T11:13:21;13.6;55.4
78696;SHT31;68030;51.980;5.646;2023-04-24T11:16:14;13.6;54.7
78696;SHT31;68030;51.980;5.646;2023-04-24T11:18:44;13.7;55.6
78696;SHT31;68030;51.980;5.646;2023-04-24T11:21:19;13.8;54.4
78696;SHT31;68030;51.980;5.646;2023-04-24T11:23:49;13.8;56.1
78696;SHT31;68030;51.980;5.646;2023-04-24T11:26:23;13.9;55.3
78696;SHT31;68030;51.980;5.646;2023-04-24T11:29:07;14.0;55.8
78696;SHT31;68030;51.980;5.646;2023-04-24T11:31:41;14.1;55.6
78696;SHT31;68030;51.980;5.646;2023-04-24T11:34:18;14.2;54.5
78696;SHT31;68030;51.980;5.646;2023-04-24T11:36:49;14.3;54.3
78696;SHT31;68030;51.980;5.646;2023-04-24T11:39:19;14.4;53.3
78696;SHT31;68030;51.980;5.646;2023-04-24T11:41:49;14.4;53.0
78696;SHT31;68030;51.980;5.646;2023-04-24T11:44:20;14.4;52.8
78696;SHT31;68030;51.980;5.646;2023-04-24T11:46:55;14.4;53.2
78696;SHT31;68030;51.980;5.646;2023-04-24T11:49:26;14.3;51.5
78696;SHT31;68030;51.980;5.646;2023-04-24T11:51:57;14.3;52.7
78696;SHT31;68030;51.980;5.646;2023-04-24T11:54:28;14.2;53.7
78696;SHT31;68030;51.980;5.646;2023-04-24T11:56:58;14.1;54.6
78696;SHT31;68030;51.980;5.646;2023-04-24T11:59:27;14.0;55.6
78696;SHT31;68030;51.980;5.646;2023-04-24T12:01:57;13.9;55.9
78696;SHT31;68030;51.980;5.646;2023-04-24T12:04:26;13.8;55.9
78696;SHT31;68030;51.980;5.646;2023-04-24T12:07:04;13.7;56.8
78696;SHT31;68030;51.980;5.646;2023-04-24T12:09:43;13.5;58.0
78696;SHT31;68030;51.980;5.646;2023-04-24T12:12:16;13.5;57.7
78696;SHT31;68030;51.980;5.646;2023-04-24T12:14:51;13.4;57.1
78696;SHT31;68030;51.980;5.646;2023-04-24T12:17:27;13.4;56.7
78696;SHT31;68030;51.980;5.646;2023-04-24T12:20:03;13.5;55.6
78696;SHT31;68030;51.980;5.646;2023-04-24T12:22:45;13.6;55.9
78696;SHT31;68030;51.980;5.646;2023-04-24T12:25:17;13.7;55.5
78696;SHT31;68030;51.980;5.646;2023-04-24T12:27:54;13.8;54.5
78696;SHT31;68030;51.980;5.646;2023-04-24T12:30:29;13.9;53.7
78696;SHT31;68030;51.980;5.646;2023-04-24T12:33:00;14.0;54.4
78696;SHT31;68030;51.980;5.646;2023-04-24T12:35:32;14.0;53.5
78696;SHT31;68030;51.980;5.646;2023-04-24T12:38:11;14.1;53.2
78696;SHT31;68030;51.980;5.646;2023-04-24T12:40:43;14.1;53.4
78696;SHT31;68030;51.980;5.646;2023-04-24T12:43:17;14.1;53.2
78696;SHT31;68030;51.980;5.646;2023-04-24T12:45:48;14.2;54.4
78696;SHT31;68030;51.980;5.646;2023-04-24T12:48:17;14.2;54.2
78696;SHT31;68030;51.980;5.646;2023-04-24T12:50:48;14.2;54.3
78696;SHT31;68030;51.980;5.646;2023-04-24T12:53:19;14.3;54.5
78696;SHT31;68030;51.980;5.646;2023-04-24T12:55:49;14.3;52.6
78696;SHT31;68030;51.980;5.646;2023-04-24T12:58:21;14.4;52.7
78696;SHT31;68030;51.980;5.646;2023-04-24T13:00:52;14.4;51.4
78696;SHT31;68030;51.980;5.646;2023-04-24T13:03:22;14.4;51.1
78696;SHT31;68030;51.980;5.646;2023-04-24T13:05:51;14.5;51.6
78696;SHT31;68030;51.980;5.646;2023-04-24T13:08:21;14.5;51.5
78696;SHT31;68030;51.980;5.646;2023-04-24T13:10:51;14.6;51.0
78696;SHT31;68030;51.980;5.646;2023-04-24T13:13:21;14.6;49.3
78696;SHT31;68030;51.980;5.646;2023-04-24T13:15:51;14.6;49.7
78696;SHT31;68030;51.980;5.646;2023-04-24T13:18:20;14.6;48.9
78696;SHT31;68030;51.980;5.646;2023-04-24T13:20:50;14.6;49.4
78696;SHT31;68030;51.980;5.646;2023-04-24T13:23:20;14.6;49.2
78696;SHT31;68030;51.980;5.646;2023-04-24T13:25:50;14.6;50.7
78696;SHT31;68030;51.980;5.646;2023-04-24T13:28:23;14.6;49.5
78696;SHT31;68030;51.980;5.646;2023-04-24T13:30:52;14.6;50.4
78696;SHT31;68030;51.980;5.646;2023-04-24T13:33:22;14.6;51.9
78696;SHT31;68030;51.980;5.646;2023-04-24T13:35:52;14.6;51.7
78696;SHT31;68030;51.980;5.646;2023-04-24T13:38:21;14.7;50.8
78696;SHT31;68030;51.980;5.646;2023-04-24T13:40:51;14.8;50.0
78696;SHT31;68030;51.980;5.646;2023-04-24T13:43:20;14.9;47.4
78696;SHT31;68030;51.980;5.646;2023-04-24T13:45:50;15.0;48.0
78696;SHT31;68030;51.980;5.646;2023-04-24T13:48:20;15.0;48.0
78696;SHT31;68030;51.980;5.646;2023-04-24T13:50:50;15.1;45.4
78696;SHT31;68030;51.980;5.646;2023-04-24T13:53:19;15.2;45.5
78696;SHT31;68030;51.980;5.646;2023-04-24T13:55:49;15.3;44.4
78696;SHT31;68030;51.980;5.646;2023-04-24T13:58:19;15.4;45.2
78696;SHT31;68030;51.980;5.646;2023-04-24T14:00:49;15.4;44.6
78696;SHT31;68030;51.980;5.646;2023-04-24T14:03:18;15.4;44.7
78696;SHT31;68030;51.980;5.646;2023-04-24T14:05:48;15.4;45.1
78696;SHT31;68030;51.980;5.646;2023-04-24T14:08:17;15.4;45.9
78696;SHT31;68030;51.980;5.646;2023-04-24T14:10:47;15.4;44.7
78696;SHT31;68030;51.980;5.646;2023-04-24T14:13:18;15.5;43.8
78696;SHT31;68030;51.980;5.646;2023-04-24T14:15:48;15.5;43.6
78696;SHT31;68030;51.980;5.646;2023-04-24T14:18:19;15.5;43.6
78696;SHT31;68030;51.980;5.646;2023-04-24T14:20:49;15.5;43.1
78696;SHT31;68030;51.980;5.646;2023-04-24T14:23:19;15.5;43.0
78696;SHT31;68030;51.980;5.646;2023-04-24T14:25:49;15.5;42.7
78696;SHT31;68030;51.980;5.646;2023-04-24T14:28:20;15.5;42.0
78696;SHT31;68030;51.980;5.646;2023-04-24T14:30:50;15.5;42.0
78696;SHT31;68030;51.980;5.646;2023-04-24T14:33:20;15.5;43.0
78696;SHT31;68030;51.980;5.646;2023-04-24T14:35:50;15.5;43.4
78696;SHT31;68030;51.980;5.646;2023-04-24T14:38:21;15.5;43.2
78696;SHT31;68030;51.980;5.646;2023-04-24T14:40:51;15.6;42.0
78696;SHT31;68030;51.980;5.646;2023-04-24T14:43:20;15.6;42.7
78696;SHT31;68030;51.980;5.646;2023-04-24T14:45:52;15.7;41.7
78696;SHT31;68030;51.980;5.646;2023-04-24T14:48:22;15.7;41.6
78696;SHT31;68030;51.980;5.646;2023-04-24T14:50:52;15.7;42.2
78696;SHT31;68030;51.980;5.646;2023-04-24T14:53:21;15.7;43.3
78696;SHT31;68030;51.980;5.646;2023-04-24T14:55:51;15.7;43.1
78696;SHT31;68030;51.980;5.646;2023-04-24T14:58:21;15.7;43.4
78696;SHT31;68030;51.980;5.646;2023-04-24T15:00:50;15.7;42.4
78696;SHT31;68030;51.980;5.646;2023-04-24T15:03:24;15.7;42.9
78696;SHT31;68030;51.980;5.646;2023-04-24T15:05:54;15.7;42.3
78696;SHT31;68030;51.980;5.646;2023-04-24T15:08:23;15.7;43.5
78696;SHT31;68030;51.980;5.646;2023-04-24T15:10:54;15.7;43.4
78696;SHT31;68030;51.980;5.646;2023-04-24T15:13:24;15.6;43.0
78696;SHT31;68030;51.980;5.646;2023-04-24T15:15:53;15.5;42.2
78696;SHT31;68030;51.980;5.646;2023-04-24T15:18:23;15.4;41.8
78696;SHT31;68030;51.980;5.646;2023-04-24T15:20:53;15.4;43.0
78696;SHT31;68030;51.980;5.646;2023-04-24T15:23:22;15.3;42.7
78696;SHT31;68030;51.980;5.646;2023-04-24T15:25:52;15.2;43.5
78696;SHT31;68030;51.980;5.646;2023-04-24T15:28:22;15.1;44.5
78696;SHT31;68030;51.980;5.646;2023-04-24T15:30:52;15.1;45.6
78696;SHT31;68030;51.980;5.646;2023-04-24T15:33:21;15.1;46.5
78696;SHT31;68030;51.980;5.646;2023-04-24T15:35:55;15.0;47.4
78696;SHT31;68030;51.980;5.646;2023-04-24T15:38:25;15.0;47.0
78696;SHT31;68030;51.980;5.646;2023-04-24T15:40:54;15.0;44.7
78696;SHT31;68030;51.980;5.646;2023-04-24T15:43:24;15.0;45.8
78696;SHT31;68030;51.980;5.646;2023-04-24T15:45:56;15.0;44.9
78696;SHT31;68030;51.980;5.646;2023-04-24T15:48:27;15.1;45.8
78696;SHT31;68030;51.980;5.646;2023-04-24T15:50:57;15.2;46.1
78696;SHT31;68030;51.980;5.646;2023-04-24T15:53:27;15.3;45.8
78696;SHT31;68030;51.980;5.646;2023-04-24T15:55:57;15.3;45.3
78696;SHT31;68030;51.980;5.646;2023-04-24T15:58:30;15.4;45.6
78696;SHT31;68030;51.980;5.646;2023-04-24T16:01:01;15.4;46.4
78696;SHT31;68030;51.980;5.646;2023-04-24T16:03:31;15.5;47.5
78696;SHT31;68030;51.980;5.646;2023-04-24T16:06:01;15.7;46.4
78696;SHT31;68030;51.980;5.646;2023-04-24T16:08:31;15.9;45.8
78696;SHT31;68030;51.980;5.646;2023-04-24T16:11:01;15.9;44.3
78696;SHT31;68030;51.980;5.646;2023-04-24T16:13:30;15.9;44.5
78696;SHT31;68030;51.980;5.646;2023-04-24T16:16:01;15.9;43.9
78696;SHT31;68030;51.980;5.646;2023-04-24T16:18:31;15.8;41.8
78696;SHT31;68030;51.980;5.646;2023-04-24T16:21:00;15.7;42.7
78696;SHT31;68030;51.980;5.646;2023-04-24T16:23:30;15.7;43.7
78696;SHT31;68030;51.980;5.646;2023-04-24T16:25:59;15.6;42.3
78696;SHT31;68030;51.980;5.646;2023-04-24T16:28:30;15.5;42.6
78696;SHT31;68030;51.980;5.646;2023-04-24T16:31:01;15.5;43.2
78696;SHT31;68030;51.980;5.646;2023-04-24T16:33:31;15.6;44.2
78696;SHT31;68030;51.980;5.646;2023-04-24T16:36:01;15.7;43.2
78696;SHT31;68030;51.980;5.646;2023-04-24T16:38:30;15.9;44.3
78696;SHT31;68030;51.980;5.646;2023-04-24T16:41:00;16.2;42.0
78696;SHT31;68030;51.980;5.646;2023-04-24T16:43:30;16.3;41.7
78696;SHT31;68030;51.980;5.646;2023-04-24T16:46:01;16.4;41.4
78696;SHT31;68030;51.980;5.646;2023-04-24T16:48:32;16.5;41.1
78696;SHT31;68030;51.980;5.646;2023-04-24T16:51:02;16.7;40.7
78696;SHT31;68030;51.980;5.646;2023-04-24T16:53:32;17.0;40.5
78696;SHT31;68030;51.980;5.646;2023-04-24T16:56:03;17.3;39.6
78696;SHT31;68030;51.980;5.646;2023-04-24T16:58:33;17.4;39.2
78696;SHT31;68030;51.980;5.646;2023-04-24T17:01:03;17.6;39.7
78696;SHT31;68030;51.980;5.646;2023-04-24T17:03:33;17.7;39.8
78696;SHT31;68030;51.980;5.646;2023-04-24T17:06:03;17.8;37.5
78696;SHT31;68030;51.980;5.646;2023-04-24T17:08:32;17.8;37.9
78696;SHT31;68030;51.980;5.646;2023-04-24T17:11:02;17.8;37.4
78696;SHT31;68030;51.980;5.646;2023-04-24T17:13:32;17.6;37.5
78696;SHT31;68030;51.980;5.646;2023-04-24T17:16:02;17.4;37.2
78696;SHT31;68030;51.980;5.646;2023-04-24T17:18:34;17.2;37.4
78696;SHT31;68030;51.980;5.646;2023-04-24T17:21:05;17.0;38.1
78696;SHT31;68030;51.980;5.646;2023-04-24T17:23:34;16.9;38.4
78696;SHT31;68030;51.980;5.646;2023-04-24T17:26:05;16.7;38.7
78696;SHT31;68030;51.980;5.646;2023-04-24T17:28:34;16.6;39.7
78696;SHT31;68030;51.980;5.646;2023-04-24T17:31:06;16.5;39.7
78696;SHT31;68030;51.980;5.646;2023-04-24T17:33:36;16.4;39.9
78696;SHT31;68030;51.980;5.646;2023-04-24T17:36:06;16.3;39.6
78696;SHT31;68030;51.980;5.646;2023-04-24T17:38:36;16.1;40.0
78696;SHT31;68030;51.980;5.646;2023-04-24T17:41:07;15.9;40.8
78696;SHT31;68030;51.980;5.646;2023-04-24T17:43:36;15.7;41.3
78696;SHT31;68030;51.980;5.646;2023-04-24T17:46:06;15.6;40.9
78696;SHT31;68030;51.980;5.646;2023-04-24T17:48:38;15.5;41.6
78696;SHT31;68030;51.980;5.646;2023-04-24T17:51:07;15.4;41.8